Time;durP1;ratioP1;P1;durP2;ratioP2;P2;SDS_P1;SDS_P2;PMS_P1;PMS_P2;Temp;Humidity;BMP_temperature;BMP_pressure;BME280_temperature;BME280_humidity;BME280_pressure;Samples;Min_cycle;Max_cycle;Signal;HPM_P1;HPM_P2
2021/12/31 00:02:25;;;;;;;0.47;0.40;;;;;;;13.56;100.00;100567.47;4971264;28;20038;-66
2021/12/31 00:04:51;;;;;;;0.30;0.30;;;;;;;13.57;100.00;100561.69;4989155;28;20061;-66
2021/12/31 00:07:17;;;;;;;0.47;0.47;;;;;;;13.66;100.00;100566.00;4969466;28;20038;-66
2021/12/31 00:09:42;;;;;;;0.82;0.52;;;;;;;13.57;100.00;100563.59;4969466;28;20023;-66
2021/12/31 00:12:08;;;;;;;0.93;0.43;;;;;;;13.47;100.00;100562.38;4973900;28;20126;-67
2021/12/31 00:14:40;;;;;;;0.70;0.60;;;;;;;13.50;100.00;100558.94;4970490;28;20484;-66
2021/12/31 00:17:07;;;;;;;0.50;0.50;;;;;;;13.41;100.00;100555.00;4971961;28;20038;-68
2021/12/31 00:19:38;;;;;;;1.17;0.80;;;;;;;13.58;100.00;100557.06;4975399;28;20034;-66
2021/12/31 00:24:41;;;;;;;3.40;0.80;;;;;;;13.55;100.00;100555.09;4969260;28;19921;-67
2021/12/31 00:27:06;;;;;;;1.17;0.73;;;;;;;13.55;100.00;100566.69;4971502;28;20038;-66
2021/12/31 00:29:32;;;;;;;1.23;0.90;;;;;;;13.52;100.00;100556.63;4990150;28;20026;-66
2021/12/31 00:31:57;;;;;;;2.47;0.80;;;;;;;13.51;100.00;100557.03;4986076;28;20456;-66
2021/12/31 00:34:23;;;;;;;1.00;0.90;;;;;;;13.43;100.00;100568.94;4998291;28;20467;-66
2021/12/31 00:36:49;;;;;;;1.42;0.80;;;;;;;13.53;100.00;100574.41;4976660;28;20034;-66
2021/12/31 00:39:15;;;;;;;1.13;0.77;;;;;;;13.46;100.00;100574.38;4981487;28;20034;-67
2021/12/31 00:41:42;;;;;;;1.88;1.05;;;;;;;13.45;100.00;100566.63;4985791;28;20068;-65
2021/12/31 00:44:09;;;;;;;1.23;0.90;;;;;;;13.38;100.00;100578.16;4987286;28;20049;-67
2021/12/31 00:46:35;;;;;;;1.13;0.85;;;;;;;13.50;100.00;100574.38;4975660;28;20502;-67
2021/12/31 00:49:03;;;;;;;1.52;0.95;;;;;;;13.51;100.00;100570.53;4973270;28;20261;-67
2021/12/31 00:51:29;;;;;;;1.42;0.98;;;;;;;13.50;100.00;100579.81;4984879;28;20084;-66
2021/12/31 00:53:55;;;;;;;2.50;0.95;;;;;;;13.62;100.00;100570.59;4987480;28;20038;-66
2021/12/31 00:56:21;;;;;;;4.07;0.88;;;;;;;13.49;100.00;100573.59;4988186;28;20062;-66
2021/12/31 00:58:47;;;;;;;1.40;0.95;;;;;;;13.46;100.00;100562.75;4973834;28;20066;-66
2021/12/31 01:01:17;;;;;;;2.05;1.08;;;;;;;13.55;100.00;100568.63;4974329;28;20038;-66
2021/12/31 01:03:43;;;;;;;3.30;0.90;;;;;;;13.34;100.00;100568.47;4988136;28;20042;-67
2021/12/31 01:06:12;;;;;;;1.67;0.98;;;;;;;13.43;100.00;100569.69;4973970;28;20043;-67
2021/12/31 01:08:37;;;;;;;2.00;1.20;;;;;;;13.51;100.00;100590.25;4977894;28;20085;-66
2021/12/31 01:11:03;;;;;;;2.28;0.98;;;;;;;13.42;100.00;100578.97;4985729;28;20081;-67
2021/12/31 01:13:52;;;;;;;2.33;1.00;;;;;;;13.57;100.00;100582.53;5006054;28;20064;-67
2021/12/31 01:16:16;;;;;;;1.60;1.20;;;;;;;13.52;100.00;100589.09;4974592;28;20047;-66
2021/12/31 01:21:22;;;;;;;3.40;1.17;;;;;;;13.67;100.00;100598.09;4999816;28;20037;-66
2021/12/31 01:23:49;;;;;;;3.13;1.10;;;;;;;13.53;100.00;100595.28;4984032;28;20468;-68
2021/12/31 01:26:15;;;;;;;2.72;1.42;;;;;;;13.55;100.00;100591.03;4972518;28;20044;-67
2021/12/31 01:28:40;;;;;;;1.73;1.17;;;;;;;13.69;100.00;100592.28;4981782;28;20113;-66
2021/12/31 01:31:06;;;;;;;1.75;1.35;;;;;;;13.69;100.00;100593.06;4973708;28;20134;-66
2021/12/31 01:33:32;;;;;;;1.38;1.00;;;;;;;13.61;100.00;100583.34;4986304;28;20206;-67
2021/12/31 01:35:57;;;;;;;3.08;1.65;;;;;;;13.53;100.00;100592.56;4974643;28;20656;-67
2021/12/31 01:38:23;;;;;;;1.88;1.20;;;;;;;13.57;100.00;100587.97;4996940;28;20038;-67
2021/12/31 01:40:50;;;;;;;3.83;1.63;;;;;;;13.67;100.00;100597.28;4992600;28;20033;-66
2021/12/31 01:43:19;;;;;;;2.30;1.27;;;;;;;13.58;100.00;100587.59;4987286;28;20038;-68
2021/12/31 01:45:54;;;;;;;2.05;1.38;;;;;;;13.62;100.00;100592.25;4972401;28;20035;-67
2021/12/31 01:48:28;;;;;;;2.83;1.77;;;;;;;13.52;100.00;100591.03;4990338;28;20053;-67
2021/12/31 01:50:55;;;;;;;2.80;1.67;;;;;;;13.58;100.00;100603.06;5001638;28;20137;-67
2021/12/31 01:53:22;;;;;;;2.47;1.58;;;;;;;13.46;100.00;100600.63;4983940;28;20113;-68
2021/12/31 01:55:50;;;;;;;2.47;1.38;;;;;;;13.70;100.00;100608.16;4973356;28;20039;-67
2021/12/31 01:58:18;;;;;;;3.75;1.70;;;;;;;13.78;100.00;100620.56;4982016;28;20092;-67
2021/12/31 02:00:43;;;;;;;3.30;1.50;;;;;;;13.77;100.00;100610.91;4989216;28;20031;-66
2021/12/31 02:03:11;;;;;;;3.35;1.65;;;;;;;13.71;100.00;100617.03;4984601;28;20112;-67
2021/12/31 02:05:38;;;;;;;2.55;1.83;;;;;;;13.66;100.00;100609.28;4991211;28;20093;-67
2021/12/31 02:08:04;;;;;;;6.32;1.63;;;;;;;13.69;100.00;100620.13;4994538;28;20034;-67
2021/12/31 02:10:33;;;;;;;3.75;1.85;;;;;;;13.60;100.00;100619.69;4980206;28;20031;-66
2021/12/31 02:12:58;;;;;;;4.53;1.83;;;;;;;13.61;100.00;100634.00;4969179;28;20046;-68
2021/12/31 02:15:26;;;;;;;3.65;1.75;;;;;;;13.60;100.00;100625.09;4980389;28;20065;-67
2021/12/31 02:17:52;;;;;;;3.65;2.35;;;;;;;13.64;100.00;100625.91;4980596;28;20038;-67
2021/12/31 02:20:19;;;;;;;3.40;1.73;;;;;;;13.54;100.00;100634.72;4990351;28;20100;-67
2021/12/31 02:23:05;;;;;;;4.30;2.22;;;;;;;13.58;100.00;100635.53;4976317;28;20590;-66
2021/12/31 02:25:31;;;;;;;4.10;1.90;;;;;;;13.72;100.00;100643.75;4983778;28;20534;-67
2021/12/31 02:27:57;;;;;;;6.40;1.83;;;;;;;13.57;100.00;100644.78;4991864;28;20406;-67
2021/12/31 02:30:23;;;;;;;5.90;2.22;;;;;;;13.81;100.00;100646.13;4988316;28;20049;-67
2021/12/31 02:32:48;;;;;;;3.28;1.90;;;;;;;13.53;100.00;100654.78;4971990;28;20058;-66
2021/12/31 02:35:14;;;;;;;3.33;1.70;;;;;;;13.49;100.00;100652.06;4985528;28;20043;-67
2021/12/31 02:37:39;;;;;;;3.13;1.60;;;;;;;13.63;100.00;100648.69;4975430;28;20129;-67
2021/12/31 02:40:09;;;;;;;4.90;1.73;;;;;;;13.53;100.00;100639.34;4991180;28;20045;-67
2021/12/31 02:42:37;;;;;;;2.70;1.80;;;;;;;13.47;100.00;100635.44;4989868;28;20034;-67
2021/12/31 02:45:06;;;;;;;3.00;2.03;;;;;;;13.52;100.00;100637.03;4990160;28;20042;-67
2021/12/31 02:47:31;;;;;;;3.63;1.42;;;;;;;13.50;100.00;100631.22;5000269;28;20049;-67
2021/12/31 02:49:57;;;;;;;7.72;2.28;;;;;;;13.74;100.00;100638.75;4970954;28;20026;-67
2021/12/31 02:52:22;;;;;;;5.22;2.33;;;;;;;13.69;100.00;100633.66;4986562;28;20092;-66
2021/12/31 02:54:49;;;;;;;3.83;2.53;;;;;;;13.58;100.00;100625.47;4987304;28;20034;-66
2021/12/31 02:57:18;;;;;;;6.85;2.15;;;;;;;13.59;100.00;100628.94;5007472;28;20052;-68
2021/12/31 02:59:45;;;;;;;10.80;2.20;;;;;;;13.57;100.00;100621.22;4992257;28;20049;-69
2021/12/31 03:02:11;;;;;;;4.93;2.10;;;;;;;13.44;100.00;100619.16;4986712;28;20042;-68
2021/12/31 03:04:39;;;;;;;2.83;1.88;;;;;;;13.58;100.00;100622.78;4994766;28;20084;-67
2021/12/31 03:07:07;;;;;;;8.73;2.88;;;;;;;13.62;100.00;100624.72;4996893;28;20029;-66
2021/12/31 03:09:35;;;;;;;4.15;2.38;;;;;;;13.76;100.00;100601.25;5010798;28;20034;-67
2021/12/31 03:12:01;;;;;;;5.65;2.63;;;;;;;13.53;100.00;100612.28;4985811;28;20050;-67
2021/12/31 03:14:28;;;;;;;4.35;2.60;;;;;;;13.52;100.00;100596.44;4991726;28;20033;-66
2021/12/31 03:16:54;;;;;;;4.68;2.67;;;;;;;13.49;100.00;100591.78;4993038;28;20479;-65
2021/12/31 03:19:21;;;;;;;3.72;2.13;;;;;;;13.43;100.00;100596.00;5008967;28;20033;-66
2021/12/31 03:21:46;;;;;;;7.65;2.95;;;;;;;13.50;100.00;100593.31;4990689;28;20045;-65
2021/12/31 03:24:12;;;;;;;6.40;2.72;;;;;;;13.64;100.00;100595.34;4992457;28;20487;-65
2021/12/31 03:26:37;;;;;;;7.25;2.50;;;;;;;13.50;100.00;100596.81;5024204;28;20045;-65
2021/12/31 03:29:04;;;;;;;4.18;2.33;;;;;;;13.47;100.00;100588.69;4974308;28;20034;-65
2021/12/31 03:31:30;;;;;;;3.75;1.90;;;;;;;13.64;100.00;100589.94;4995980;28;20048;-67
2021/12/31 03:33:55;;;;;;;3.75;2.40;;;;;;;13.57;100.00;100585.25;5007343;28;20410;-66
2021/12/31 03:36:21;;;;;;;3.05;2.00;;;;;;;13.49;100.00;100595.25;4988983;28;20034;-66
2021/12/31 03:38:47;;;;;;;4.15;2.40;;;;;;;13.46;100.00;100595.22;4993114;28;20042;-66
2021/12/31 03:41:12;;;;;;;4.25;2.58;;;;;;;13.62;100.00;100598.44;5004392;28;20038;-67
2021/12/31 03:43:38;;;;;;;6.72;2.78;;;;;;;13.62;100.00;100603.84;4986521;28;20089;-68
2021/12/31 03:46:03;;;;;;;9.15;2.20;;;;;;;13.81;100.00;100600.88;4989214;28;20030;-66
2021/12/31 03:48:29;;;;;;;5.75;2.28;;;;;;;13.69;100.00;100605.81;4990953;28;20052;-67
2021/12/31 03:50:54;;;;;;;10.05;2.47;;;;;;;13.52;100.00;100596.44;4989186;28;20590;-67
2021/12/31 03:53:20;;;;;;;3.92;1.60;;;;;;;13.48;100.00;100599.13;4987366;28;20039;-67
2021/12/31 03:55:46;;;;;;;2.63;1.83;;;;;;;13.50;100.00;100596.81;4987687;28;20042;-67
2021/12/31 03:58:12;;;;;;;4.13;1.88;;;;;;;13.59;100.00;100597.25;5005513;28;20041;-68
2021/12/31 04:00:38;;;;;;;4.32;1.75;;;;;;;13.56;100.00;100599.94;4986085;28;20380;-67
2021/12/31 04:03:06;;;;;;;6.60;2.15;;;;;;;13.61;100.00;100594.16;4968647;28;20069;-67
2021/12/31 04:05:31;;;;;;;1.98;1.52;;;;;;;13.46;100.00;100593.31;4988170;28;20033;-67
2021/12/31 04:07:57;;;;;;;2.53;1.80;;;;;;;13.55;100.00;100582.94;4977945;28;20033;-68
2021/12/31 04:10:25;;;;;;;1.98;1.77;;;;;;;13.67;100.00;100594.59;4985996;28;20038;-67
2021/12/31 04:12:51;;;;;;;3.22;2.28;;;;;;;13.52;100.00;100599.94;4983102;28;20615;-67
2021/12/31 04:15:16;;;;;;;4.90;2.20;;;;;;;13.52;100.00;100604.56;4974874;28;20034;-67
2021/12/31 04:17:42;;;;;;;4.47;2.00;;;;;;;13.64;100.00;100603.47;4991804;28;20038;-67
2021/12/31 04:20:14;;;;;;;3.45;1.75;;;;;;;13.63;100.00;100601.94;4992969;28;20421;-67
2021/12/31 04:22:50;;;;;;;5.53;1.67;;;;;;;13.55;100.00;100593.75;4985253;28;20426;-67
2021/12/31 04:25:19;;;;;;;5.60;2.10;;;;;;;13.49;100.00;100605.31;4974983;28;20062;-67
2021/12/31 04:27:45;;;;;;;6.40;1.98;;;;;;;13.42;100.00;100608.72;4976801;28;20115;-69
2021/12/31 04:30:11;;;;;;;3.25;1.83;;;;;;;13.40;100.00;100602.91;4989271;28;20522;-67
2021/12/31 04:32:40;;;;;;;3.88;1.63;;;;;;;13.75;100.00;100596.97;5000324;28;20033;-66
2021/12/31 04:35:11;;;;;;;6.55;2.42;;;;;;;13.69;100.00;100593.06;4991847;28;20570;-66
2021/12/31 04:37:38;;;;;;;3.17;1.45;;;;;;;13.62;100.00;100606.56;4984612;28;20062;-67
2021/12/31 04:40:05;;;;;;;2.13;1.40;;;;;;;13.49;100.00;100602.59;4989369;28;20815;-68
2021/12/31 04:42:30;;;;;;;3.17;1.70;;;;;;;13.54;100.00;100605.75;4977956;28;20145;-67
2021/12/31 04:44:57;;;;;;;4.85;1.67;;;;;;;13.51;100.00;100600.31;4990725;28;20460;-66
2021/12/31 04:47:22;;;;;;;2.72;1.45;;;;;;;13.52;100.00;100601.84;4985498;28;20066;-67
2021/12/31 04:49:48;;;;;;;3.95;1.58;;;;;;;13.60;100.00;100606.16;4992843;28;20077;-66
2021/12/31 04:52:13;;;;;;;6.38;1.60;;;;;;;13.82;100.00;100607.09;4978585;28;20042;-67
2021/12/31 04:54:38;;;;;;;5.72;3.15;;;;;;;13.50;100.00;100599.53;4971949;28;20042;-66
2021/12/31 04:57:04;;;;;;;1.52;1.20;;;;;;;13.49;100.00;100602.59;5007408;28;20109;-66
2021/12/31 04:59:30;;;;;;;5.35;1.73;;;;;;;13.37;100.00;100594.78;5014747;28;20042;-68
2021/12/31 05:01:55;;;;;;;6.30;1.50;;;;;;;13.56;100.00;100595.31;4992536;28;20096;-66
2021/12/31 05:04:21;;;;;;;3.53;1.75;;;;;;;13.47;100.00;100594.84;4978632;28;20038;-67
2021/12/31 05:06:49;;;;;;;6.45;1.52;;;;;;;13.41;100.00;100584.75;4988239;28;20038;-66
2021/12/31 05:09:14;;;;;;;4.55;1.48;;;;;;;13.29;100.00;100590.47;5009760;22;20042;-68
2021/12/31 05:11:40;;;;;;;2.17;1.27;;;;;;;13.52;100.00;100601.84;4982933;28;20549;-67
2021/12/31 05:14:05;;;;;;;1.70;1.05;;;;;;;13.47;100.00;100605.66;4983925;28;20035;-67
2021/12/31 05:16:31;;;;;;;1.85;1.23;;;;;;;13.55;100.00;100601.09;4990428;28;20026;-67
2021/12/31 05:18:57;;;;;;;2.03;1.13;;;;;;;13.59;100.00;100604.59;4985198;28;20045;-68
2021/12/31 05:21:22;;;;;;;2.17;1.60;;;;;;;13.44;100.00;100598.31;4966339;28;20039;-68
2021/12/31 05:23:48;;;;;;;6.65;1.80;;;;;;;13.39;100.00;100606.00;4964290;28;20039;-67
2021/12/31 05:26:13;;;;;;;4.38;2.70;;;;;;;13.37;100.00;100592.06;4970613;28;20042;-69
2021/12/31 05:28:39;;;;;;;1.80;1.30;;;;;;;13.44;100.00;100601.03;4968785;28;20204;-68
2021/12/31 05:31:05;;;;;;;2.85;1.42;;;;;;;13.52;100.00;100594.50;4970383;28;20038;-67
2021/12/31 05:33:30;;;;;;;2.47;1.25;;;;;;;13.41;100.00;100582.06;4969322;28;20526;-68
2021/12/31 05:35:59;;;;;;;1.73;1.38;;;;;;;13.45;100.00;100577.44;4972194;28;20613;-67
2021/12/31 05:38:25;;;;;;;1.75;1.27;;;;;;;13.43;100.00;100572.41;4968104;28;20042;-68
2021/12/31 05:40:50;;;;;;;6.20;1.67;;;;;;;13.50;100.00;100574.38;4972439;28;20054;-68
2021/12/31 05:43:16;;;;;;;3.65;1.60;;;;;;;13.51;100.00;100576.72;4971256;28;20039;-68
2021/12/31 05:45:41;;;;;;;1.80;1.33;;;;;;;13.43;100.00;100577.81;4972578;28;20027;-67
2021/12/31 05:48:06;;;;;;;2.72;1.40;;;;;;;13.45;100.00;100583.63;4967216;28;20031;-67
2021/12/31 05:50:32;;;;;;;4.15;1.73;;;;;;;13.51;100.00;100581.38;4972169;28;20038;-68
2021/12/31 05:52:59;;;;;;;7.63;1.83;;;;;;;13.52;100.00;100585.63;4969836;28;20046;-67
2021/12/31 05:55:25;;;;;;;1.98;1.65;;;;;;;13.37;100.00;100584.75;4971769;28;20594;-68
2021/12/31 05:57:51;;;;;;;3.50;1.40;;;;;;;13.47;100.00;100585.97;4968400;28;20034;-67
2021/12/31 06:00:17;;;;;;;2.22;1.55;;;;;;;13.57;100.00;100586.03;4970064;28;20538;-67
2021/12/31 06:02:43;;;;;;;4.07;1.85;;;;;;;13.69;100.00;100582.25;4967318;28;20700;-67
2021/12/31 06:05:09;;;;;;;3.38;1.88;;;;;;;13.64;100.00;100585.31;4969575;28;20053;-67
2021/12/31 06:07:34;;;;;;;5.20;2.42;;;;;;;13.56;100.00;100589.13;4972040;28;20727;-68
2021/12/31 06:09:59;;;;;;;4.43;1.80;;;;;;;13.44;100.00;100595.59;4971477;28;20047;-67
2021/12/31 06:12:25;;;;;;;6.70;2.40;;;;;;;13.39;100.00;100585.13;4971462;28;20077;-68
2021/12/31 06:14:53;;;;;;;3.67;1.85;;;;;;;13.34;100.00;100585.47;4968845;28;20035;-67
2021/12/31 06:17:24;;;;;;;5.95;1.75;;;;;;;13.35;100.00;100588.97;4967258;28;20031;-68
2021/12/31 06:19:50;;;;;;;3.22;1.83;;;;;;;13.44;100.00;100575.88;4970235;28;20053;-67
2021/12/31 06:22:16;;;;;;;2.60;2.10;;;;;;;13.55;100.00;100582.13;4971342;28;20042;-68
2021/12/31 06:24:44;;;;;;;4.43;2.38;;;;;;;13.58;100.00;100576.78;4971198;28;20039;-67
2021/12/31 06:27:09;;;;;;;3.22;2.10;;;;;;;13.50;100.00;100571.69;4971865;28;20447;-67
2021/12/31 06:29:35;;;;;;;5.93;2.25;;;;;;;13.68;100.00;100564.47;4970630;28;20109;-68
2021/12/31 06:32:00;;;;;;;5.65;2.53;;;;;;;13.48;100.00;100560.47;4969397;28;20047;-67
2021/12/31 06:34:28;;;;;;;4.63;2.63;;;;;;;13.46;100.00;100551.94;4969538;28;20031;-67
2021/12/31 06:36:54;;;;;;;4.97;2.55;;;;;;;13.60;100.00;100562.88;4969243;28;20062;-68
2021/12/31 06:39:19;;;;;;;4.22;2.22;;;;;;;13.61;100.00;100559.00;4967763;28;20759;-67
2021/12/31 06:41:45;;;;;;;6.45;2.65;;;;;;;13.47;100.00;100564.34;4970781;28;20081;-67
2021/12/31 06:44:10;;;;;;;4.55;2.70;;;;;;;13.50;100.00;100545.41;4969131;28;20070;-68
2021/12/31 06:46:39;;;;;;;5.65;2.90;;;;;;;13.49;100.00;100562.03;4970998;28;20027;-67
2021/12/31 06:49:04;;;;;;;3.15;2.28;;;;;;;13.51;100.00;100554.31;4972211;28;20078;-66
2021/12/31 06:51:29;;;;;;;5.70;2.70;;;;;;;13.53;100.00;100557.38;4969730;28;20062;-67
2021/12/31 06:53:55;;;;;;;5.95;3.50;;;;;;;13.53;100.00;100563.59;4970203;28;20379;-67
2021/12/31 06:56:20;;;;;;;4.85;2.45;;;;;;;13.55;100.00;100557.78;4970011;28;20538;-67
2021/12/31 06:58:46;;;;;;;4.63;2.63;;;;;;;13.49;100.00;100548.50;4971772;28;20038;-68
2021/12/31 07:01:11;;;;;;;4.55;2.80;;;;;;;13.47;100.00;100545.41;4968487;28;20114;-67
2021/12/31 07:03:36;;;;;;;5.45;3.08;;;;;;;13.43;100.00;100536.47;4969314;28;20038;-68
2021/12/31 07:06:02;;;;;;;7.95;2.97;;;;;;;13.38;100.00;100544.91;4970688;28;20113;-68
2021/12/31 07:08:28;;;;;;;5.22;2.40;;;;;;;13.53;100.00;100551.97;4970943;28;20046;-67
2021/12/31 07:10:54;;;;;;;8.10;3.30;;;;;;;13.45;100.00;100543.03;4968469;28;20034;-67
2021/12/31 07:13:19;;;;;;;5.88;3.00;;;;;;;13.45;100.00;100551.16;4964033;28;20027;-68
2021/12/31 07:15:49;;;;;;;9.90;3.45;;;;;;;13.44;100.00;100544.22;4969720;28;20030;-68
2021/12/31 07:18:20;;;;;;;6.70;2.25;;;;;;;13.51;100.00;100557.78;4971888;28;20484;-67
2021/12/31 07:20:45;;;;;;;6.43;2.78;;;;;;;13.50;100.00;100552.75;4970594;28;20031;-68
2021/12/31 07:23:13;;;;;;;11.80;2.88;;;;;;;13.55;100.00;100560.50;4969333;28;20039;-68
2021/12/31 07:25:39;;;;;;;6.13;3.55;;;;;;;13.64;100.00;100552.06;4971315;28;20058;-67
2021/12/31 07:28:06;;;;;;;5.35;2.92;;;;;;;13.59;100.00;100558.59;4970614;28;20057;-68
2021/12/31 07:30:32;;;;;;;4.72;2.67;;;;;;;13.55;100.00;100557.78;4971322;28;20045;-68
2021/12/31 07:32:58;;;;;;;11.73;2.70;;;;;;;13.62;100.00;100551.66;4968430;28;20027;-67
2021/12/31 07:35:24;;;;;;;5.82;2.80;;;;;;;13.64;100.00;100550.13;4958908;28;21986;-68
2021/12/31 07:37:53;;;;;;;6.63;3.10;;;;;;;13.87;100.00;100550.66;4967001;28;20439;-67
2021/12/31 07:40:26;;;;;;;7.95;2.53;;;;;;;13.63;100.00;100550.53;4968900;28;20039;-67
2021/12/31 07:42:52;;;;;;;8.13;3.13;;;;;;;13.51;100.00;100546.94;4973040;28;20399;-67
2021/12/31 07:45:17;;;;;;;4.45;2.70;;;;;;;13.52;100.00;100558.56;4974900;28;20038;-67
2021/12/31 07:47:43;;;;;;;4.57;2.40;;;;;;;13.46;100.00;100557.34;4973366;28;20030;-68
2021/12/31 07:50:08;;;;;;;5.45;2.88;;;;;;;13.59;100.00;100555.88;4989467;28;20117;-67
2021/12/31 07:52:34;;;;;;;5.72;2.65;;;;;;;13.68;100.00;100555.56;4970912;28;20578;-67
2021/12/31 07:54:59;;;;;;;6.40;2.85;;;;;;;13.75;100.00;100558.31;4970091;28;20066;-68
2021/12/31 07:57:25;;;;;;;6.47;2.85;;;;;;;13.58;100.00;100565.97;4961460;28;20038;-67
2021/12/31 07:59:50;;;;;;;5.82;2.60;;;;;;;13.58;100.00;100570.59;4974092;28;20031;-68
2021/12/31 08:02:15;;;;;;;5.40;2.92;;;;;;;13.67;100.00;100565.59;4973278;28;20411;-68
2021/12/31 08:04:41;;;;;;;7.90;2.80;;;;;;;13.71;100.00;100563.69;4968011;28;20093;-67
2021/12/31 08:07:06;;;;;;;4.40;2.58;;;;;;;13.72;100.00;100567.97;4972972;28;20035;-70
2021/12/31 08:09:32;;;;;;;4.60;2.35;;;;;;;13.55;100.00;100563.19;4972641;28;20027;-68
2021/12/31 08:11:58;;;;;;;4.82;2.72;;;;;;;13.67;100.00;100565.59;4973222;28;20444;-69
2021/12/31 08:14:23;;;;;;;4.72;2.50;;;;;;;13.69;100.00;100571.41;4968456;28;20029;-67
2021/12/31 08:16:49;;;;;;;6.90;3.22;;;;;;;13.64;100.00;100563.66;4972142;28;20391;-68
2021/12/31 08:19:17;;;;;;;5.00;3.00;;;;;;;13.79;100.00;100562.59;4971181;28;20173;-68
2021/12/31 08:21:42;;;;;;;4.22;2.45;;;;;;;13.86;100.00;100559.91;4966208;28;20067;-68
2021/12/31 08:24:08;;;;;;;5.45;2.95;;;;;;;14.06;100.00;100563.09;4970232;28;20070;-68
2021/12/31 08:26:33;;;;;;;5.78;3.03;;;;;;;13.79;100.00;100565.28;4972435;28;20450;-68
2021/12/31 08:28:58;;;;;;;4.88;2.80;;;;;;;13.95;100.00;100568.50;4972514;28;20043;-68
2021/12/31 08:31:24;;;;;;;4.60;2.58;;;;;;;13.80;100.00;100561.44;4973068;28;20154;-68
2021/12/31 08:33:49;;;;;;;5.80;2.95;;;;;;;13.70;100.00;100567.56;4968347;28;20031;-68
2021/12/31 08:36:14;;;;;;;5.53;3.03;;;;;;;13.67;100.00;100560.19;4960902;28;20046;-66
2021/12/31 08:38:40;;;;;;;3.63;2.45;;;;;;;13.85;100.00;100558.38;4971302;28;20074;-67
2021/12/31 08:41:06;;;;;;;6.32;3.13;;;;;;;13.90;100.00;100549.13;4970890;28;20042;-67
2021/12/31 08:43:31;;;;;;;4.82;2.42;;;;;;;14.00;100.00;100553.78;4966049;28;20042;-67
2021/12/31 08:45:57;;;;;;;6.28;3.08;;;;;;;13.92;100.00;100552.97;4973325;28;20030;-66
2021/12/31 08:48:22;;;;;;;6.85;2.65;;;;;;;13.89;100.00;100555.69;4970647;28;20114;-66
2021/12/31 08:50:48;;;;;;;6.38;2.80;;;;;;;13.78;100.00;100547.50;4961881;28;20030;-67
2021/12/31 08:53:13;;;;;;;8.27;3.00;;;;;;;13.76;100.00;100555.25;4964450;28;20046;-67
2021/12/31 08:55:40;;;;;;;4.15;2.70;;;;;;;13.74;100.00;100546.72;4972754;28;20195;-67
2021/12/31 08:58:06;;;;;;;3.72;2.22;;;;;;;13.80;100.00;100547.88;4972884;28;20039;-67
2021/12/31 09:00:32;;;;;;;6.05;2.63;;;;;;;13.86;100.00;100549.09;4971357;28;20070;-70
2021/12/31 09:02:57;;;;;;;4.38;2.63;;;;;;;13.87;100.00;100545.25;4971316;28;20420;-66
2021/12/31 09:05:23;;;;;;;4.25;2.60;;;;;;;14.14;100.00;100545.75;4973744;28;20046;-66
2021/12/31 09:07:50;;;;;;;4.00;2.42;;;;;;;14.05;100.00;100556.91;4974108;28;20031;-67
2021/12/31 09:10:15;;;;;;;4.82;2.40;;;;;;;13.92;100.00;100558.41;4973222;28;20066;-67
2021/12/31 09:12:44;;;;;;;6.55;2.47;;;;;;;13.99;100.00;100566.59;4973019;28;20042;-66
2021/12/31 09:15:09;;;;;;;4.00;2.15;;;;;;;13.98;100.00;100561.53;4986461;28;20046;-67
2021/12/31 09:17:34;;;;;;;4.38;2.58;;;;;;;13.89;100.00;100575.41;4972220;28;20392;-67
2021/12/31 09:20:00;;;;;;;4.00;2.45;;;;;;;13.87;100.00;100561.47;4968221;28;20046;-66
2021/12/31 09:22:27;;;;;;;5.32;2.40;;;;;;;13.96;100.00;100550.28;4978980;28;20070;-67
2021/12/31 09:24:52;;;;;;;4.28;2.25;;;;;;;13.84;100.00;100553.34;4966374;28;20502;-67
2021/12/31 09:27:18;;;;;;;10.25;2.42;;;;;;;13.94;100.00;100563.44;4972553;28;20038;-67
2021/12/31 09:29:43;;;;;;;4.47;2.42;;;;;;;13.90;100.00;100574.25;4972516;28;20078;-67
2021/12/31 09:32:09;;;;;;;3.55;2.10;;;;;;;13.98;100.00;100562.31;4971744;28;20039;-66
2021/12/31 09:34:34;;;;;;;3.55;2.15;;;;;;;14.06;100.00;100566.59;4973557;28;20476;-66
2021/12/31 09:37:00;;;;;;;3.47;2.10;;;;;;;14.00;100.00;100570.03;4971859;28;20042;-67
2021/12/31 09:39:25;;;;;;;3.92;2.40;;;;;;;13.96;100.00;100580.06;4973407;28;20534;-66
2021/12/31 09:41:50;;;;;;;3.10;2.10;;;;;;;13.96;100.00;100569.25;4971099;28;20495;-66
2021/12/31 09:44:20;;;;;;;3.97;1.98;;;;;;;13.94;100.00;100566.91;4970241;28;20042;-67
2021/12/31 09:46:45;;;;;;;3.95;2.38;;;;;;;13.88;100.00;100571.13;4972899;28;20376;-67
2021/12/31 09:49:11;;;;;;;4.15;2.15;;;;;;;13.89;100.00;100585.47;4973050;28;20030;-67
2021/12/31 09:51:41;;;;;;;3.05;1.92;;;;;;;14.03;100.00;100588.25;4964434;28;20509;-66
2021/12/31 09:54:07;;;;;;;2.88;1.65;;;;;;;14.00;100.00;100586.28;4968402;28;20047;-66
2021/12/31 09:56:39;;;;;;;3.28;2.13;;;;;;;14.14;100.00;100597.19;4973072;28;20113;-69
2021/12/31 09:59:04;;;;;;;2.53;1.80;;;;;;;14.17;100.00;100582.88;4959280;28;20039;-70
2021/12/31 10:01:30;;;;;;;3.80;2.40;;;;;;;14.09;100.00;100584.78;4971583;28;20058;-69
2021/12/31 10:03:57;;;;;;;3.15;1.40;;;;;;;14.26;100.00;100589.53;4971075;28;20041;-69
2021/12/31 10:06:28;;;;;;;3.53;2.15;;;;;;;14.18;100.00;100579.81;4971219;28;20134;-67
2021/12/31 10:09:01;;;;;;;4.30;2.13;;;;;;;14.26;100.00;100597.66;4969802;28;20158;-66
2021/12/31 10:11:27;;;;;;;4.50;1.90;;;;;;;14.34;100.00;100582.25;4964743;28;20470;-66
2021/12/31 10:14:02;;;;;;;3.55;2.05;;;;;;;14.18;100.00;100585.25;4972038;28;20035;-66
2021/12/31 10:16:36;;;;;;;4.30;2.13;;;;;;;14.14;100.00;100580.94;4967906;28;20119;-67
2021/12/31 10:19:16;;;;;;;2.38;1.80;;;;;;;14.10;100.00;100582.88;4963291;28;20035;-69
2021/12/31 10:21:43;;;;;;;3.40;2.20;;;;;;;13.94;100.00;100579.69;4971708;28;20047;-69
2021/12/31 10:24:36;;;;;;;2.97;2.03;;;;;;;14.04;100.00;100582.44;4980133;28;20779;-69
2021/12/31 10:27:17;;;;;;;3.58;1.90;;;;;;;13.95;100.00;100579.31;4970188;28;20046;-69
2021/12/31 10:30:04;;;;;;;3.08;2.25;;;;;;;14.03;100.00;100599.84;4971117;28;20051;-69
2021/12/31 10:32:32;;;;;;;3.10;1.65;;;;;;;14.10;100.00;100578.22;4970627;28;20514;-69
2021/12/31 10:35:12;;;;;;;3.47;2.45;;;;;;;14.08;100.00;100588.66;4970936;28;20062;-69
2021/12/31 10:37:48;;;;;;;4.10;2.25;;;;;;;14.00;100.00;100576.25;4962974;28;20404;-69
2021/12/31 10:40:36;;;;;;;4.07;2.35;;;;;;;14.18;100.00;100573.63;4969542;28;20093;-67
2021/12/31 10:43:10;;;;;;;2.53;1.90;;;;;;;14.19;100.00;100569.75;4965844;28;20137;-66
2021/12/31 10:45:40;;;;;;;4.53;2.05;;;;;;;14.24;100.00;100570.16;4967501;28;20062;-66
2021/12/31 10:48:10;;;;;;;4.05;2.33;;;;;;;14.22;100.00;100571.69;4966847;28;20050;-66
2021/12/31 10:50:37;;;;;;;2.83;2.23;;;;;;;14.27;100.00;100571.31;4984849;28;20026;-66
2021/12/31 10:53:11;;;;;;;3.67;2.53;;;;;;;14.20;100.00;100574.81;4968248;28;20042;-67
2021/12/31 10:55:44;;;;;;;3.65;2.38;;;;;;;14.31;100.00;100570.22;4952099;28;20059;-66
2021/12/31 10:58:16;;;;;;;6.20;3.42;;;;;;;14.41;100.00;100574.13;4981959;28;20041;-67
2021/12/31 11:00:43;;;;;;;3.63;2.45;;;;;;;14.34;100.00;100572.16;4980654;28;20034;-67
2021/12/31 11:03:10;;;;;;;3.88;2.47;;;;;;;14.48;100.00;100567.97;4963123;28;20046;-70
2021/12/31 11:05:37;;;;;;;4.30;2.30;;;;;;;14.32;100.00;100582.59;4984478;28;20373;-67
2021/12/31 11:08:04;;;;;;;4.72;2.47;;;;;;;14.20;100.00;100580.22;4968616;28;20050;-67
2021/12/31 11:10:36;;;;;;;3.90;2.13;;;;;;;14.16;100.00;100573.22;5026809;23;20410;-66
2021/12/31 11:13:14;;;;;;;4.97;2.17;;;;;;;14.30;100.00;100570.59;5007542;28;20088;-67
2021/12/31 11:15:42;;;;;;;2.28;1.70;;;;;;;14.29;100.00;100569.03;5002905;28;20397;-67
2021/12/31 11:18:08;;;;;;;5.05;2.28;;;;;;;14.14;100.00;100565.47;5001985;28;20159;-67
2021/12/31 11:20:34;;;;;;;3.15;2.28;;;;;;;14.28;100.00;100571.00;4998690;28;20114;-67
2021/12/31 11:23:00;;;;;;;5.15;2.70;;;;;;;14.29;100.00;100561.69;4995835;28;20034;-67